METAR Data
IDs: Format: Raw Decoded Include TAF

Data at: 2031 UTC 19 May 2019

PAGY 191953Z AUTO 22004KT 10SM CLR 15/07 A2974 RMK AO2 SLP069 T01500067 TSNO
PAGY 191853Z AUTO 25004KT 10SM CLR 15/05 A2975 RMK AO2 SLP073 T01500050 TSNO
PAGY 191753Z AUTO 22004KT 10SM CLR 14/05 A2977 RMK AO2 SLP082 T01390050 10156 20061 56017 TSNO
PAGY 191653Z AUTO 00000KT 10SM BKN120 14/06 A2978 RMK AO2 SLP085 T01390056 TSNO
PAGY 191553Z AUTO 00000KT 10SM CLR 11/04 A2981 RMK AO2 SLP094 T01060039 TSNO
PAGY 191453Z AUTO 04004KT 10SM CLR 07/04 A2982 RMK AO2 SLP099 T00720039 56005 TSNO
PAGY 191353Z AUTO 07004KT 10SM CLR 07/03 A2983 RMK AO2 SLP102 T00720033 TSNO
PAGY 191253Z AUTO 00000KT 10SM FEW100 07/03 A2983 RMK AO2 SLP100 T00720033 TSNO
PAGY 191153Z AUTO 02005KT 10SM SCT110 07/03 A2984 RMK AO2 SLP104 70001 T00670033 10117 20067 50002 TSNO
PAGY 191053Z AUTO 03004KT 10SM SCT110 07/03 A2985 RMK AO2 SLP107 T00720033 TSNO
PAGY 190953Z AUTO 04003KT 10SM FEW120 08/04 A2985 RMK AO2 SLP107 T00830039 TSNO
PAGY 190853Z AUTO 02003KT 10SM CLR 08/04 A2983 RMK AO2 SLP103 T00780039 401610078 58003 TSNO
PAGY 190753Z AUTO 04003KT 10SM CLR 09/04 A2984 RMK AO2 SLP104 T00890044 TSNO
PAGY 190653Z AUTO 00000KT 10SM CLR 10/05 A2985 RMK AO2 SLP108 T01000050 TSNO
PAGY 190553Z AUTO 00000KT 10SM CLR 12/06 A2984 RMK AO2 SLP106 T01170056 10161 20111 53004 TSNO
PAGY 190453Z AUTO 00000KT 10SM CLR 13/06 A2983 RMK AO2 SLP102 T01280056 TSNO
PAGY 190353Z AUTO 00000KT 10SM CLR 14/05 A2982 RMK AO2 SLP099 T01440050 TSNO
PAGY 190253Z AUTO 24004KT 10SM CLR 14/07 A2983 RMK AO2 SLP102 T01390067 58010 TSNO
PAGY 190153Z AUTO 23003KT 10SM CLR 15/06 A2984 RMK AO2 SLP106 T01500061 TSNO
PAGY 190053Z AUTO 24004KT 10SM OVC090 16/04 A2985 RMK AO2 SLP109 T01560039 TSNO
PAGY 182353Z AUTO 23006KT 10SM OVC075 16/04 A2986 RMK AO2 SLP112 T01560044 10156 20111 55006 TSNO
PAGY 182253Z AUTO 22009KT 10SM FEW070 BKN090 13/06 A2986 RMK AO2 SLP111 T01280056 TSNO
PAGY 182153Z AUTO 23006KT 10SM BKN085 13/05 A2986 RMK AO2 SLP113 T01330050 TSNO
PAGY 182053Z AUTO 23006KT 10SM OVC080 12/05 A2988 RMK AO2 SLP118 T01220050 53000 TSNO
PAGY 181953Z AUTO 23003KT 10SM FEW065 SCT080 13/04 A2988 RMK AO2 SLP117 T01330044 TSNO
PAGY 181853Z AUTO 00000KT 10SM OVC075 13/07 A2987 RMK AO2 SLP116 T01330067 TSNO
PAGY 181753Z AUTO 23003KT 10SM OVC070 12/07 A2988 RMK AO2 SLP118 60001 T01220067 10128 20078 53009 TSNO
PAGY 181653Z AUTO 31003KT 10SM OVC065 11/08 A2987 RMK AO2 SLP115 T01110078 TSNO
PAGY 181553Z AUTO 00000KT 10SM CLR 11/08 A2986 RMK AO2 SLP112 T01110078 TSNO
PAGY 181453Z AUTO 00000KT 10SM FEW060 SCT075 BKN090 09/07 A2985 RMK AO2 RAE43 SLP109 P0001 60001 T00940072 53016 TSNO
PAGY 181353Z AUTO 00000KT 10SM -RA FEW013 OVC050 09/07 A2984 RMK AO2 RAB52 SLP103 P0000 T00890067 TSNO
PAGY 181253Z AUTO 02005KT 10SM FEW022 BKN030 OVC100 08/07 A2981 RMK AO2 SLP096 T00780067 TSNO
PAGY 181153Z AUTO 00000KT 10SM SCT055 SCT100 08/07 A2981 RMK AO2 SLP093 60000 70014 T00830067 10117 20078 53015 TSNO
PAGY 181053Z AUTO 00000KT 10SM FEW075 09/08 A2978 RMK AO2 RAE0958 SLP086 P0000 T00940078 TSNO
PAGY 180953Z AUTO 02004KT 10SM -RA BKN065 OVC090 10/08 A2978 RMK AO2 RAB12 SLP083 P0000 T01000078 TSNO
PAGY 180853Z AUTO 00000KT 10SM FEW060 FEW080 OVC100 11/08 A2976 RMK AO2 SLP079 60000 T01060078 401390089 51018 TSNO